Weather at InterContinental Abu Dhabi Marina Heliport

Public forecast

Using degrees Celsius for public forecast. Weather courtesy of forecast.io.

Closest aviation weather report (METAR) to InterContinental Abu Dhabi Marina Heliport

Closest report is Al Bateen Executive Airport, 7.4 nm (13.6 km) ESE.

2024/07/20 05:00 (retrieved 1 hour ago)

OMAD 200500Z 28003KT 200V330 8000 NSC 35/29 Q0994 NOSIG

Closest aviation forecast (TAF) to InterContinental Abu Dhabi Marina Heliport

Closest forecast is Al Bateen Executive Airport, 7.4 nm (13.6 km) ESE.

2024/07/20 06:09 (retrieved 0 seconds ago)

TAF TAF OMAD 200500Z 2006/2112 33011KT 8000 NSC BECMG 2018/2020 VRB02KT PROB30 2023/2104 3000 BR BECMG 2105/2107 32012KT